Ilford, Canada
Current Conditions -  °F | °C
As of 12:00 PM on Monday 20 Oct 2014 (Local Time) from CYGX Reporting Station
Overcast Overcast  
Wind Chill:   Ceiling: 1600
Heat Index:   Visibility: 15mi
Dew Point:   Wind: 3mph
Humidity: 87%   Direction: 240°WSW
Pressure: 30.11"   Gusts: NA
Location:  56.04°N, 95.58°W
Report Text: CYGX 201700Z 24003KT 190V260 15SM OVC016 03/01 A3011 RMK SC8 SLP207
Loading
Personal Weather Stations






























Interactive Weather Map
Tropical Storm Tracking
New forecast layout! Learn more

10-Day Weather Forecast

Advertisements
Track Severe Weather on mobile